Time;durP1;ratioP1;P1;durP2;ratioP2;P2;SDS_P1;SDS_P2;PMS_P1;PMS_P2;Temp;Humidity;BMP_temperature;BMP_pressure;BME280_temperature;BME280_humidity;BME280_pressure;Samples;Min_cycle;Max_cycle;Signal;HPM_P1;HPM_P2
2023/05/21 00:00:09;;;;;;;;;;;;;;;;;;5037764;28;19910;-13
2023/05/21 00:02:35;;;;;;;;;;;;;;;;;;5037443;28;20233;-16
2023/05/21 00:05:01;;;;;;;;;;;;;;;;;;5037264;28;19925;-15
2023/05/21 00:07:27;;;;;;;;;;;;;;;;;;5037419;28;19950;-15
2023/05/21 00:09:53;;;;;;;;;;;;;;;;;;5037346;28;19917;-14
2023/05/21 00:12:19;;;;;;;;;;;;;;;;;;5037274;28;19978;-16
2023/05/21 00:14:45;;;;;;;;;;;;;;;;;;5037287;28;20341;-16
2023/05/21 00:17:11;;;;;;;;;;;;;;;;;;5037198;28;20229;-14
2023/05/21 00:19:38;;;;;;;;;;;;;;;;;;5037177;28;19913;-15
2023/05/21 00:22:04;;;;;;;;;;;;;;;;;;5035243;28;19922;-17
2023/05/21 00:24:30;;;;;;;;;;;;;;;;;;5037332;28;19908;-15
2023/05/21 00:26:56;;;;;;;;;;;;;;;;;;5037033;28;19909;-16
2023/05/21 00:29:22;;;;;;;;;;;;;;;;;;5036983;28;19909;-15
2023/05/21 00:31:49;;;;;;;;;;;;;;;;;;5037169;28;19916;-15
2023/05/21 00:34:15;;;;;;;;;;;;;;;;;;5036956;28;19909;-15
2023/05/21 00:36:44;;;;;;;;;;;;;;;;;;5035831;28;19959;-15
2023/05/21 00:39:10;;;;;;;;;;;;;;;;;;5036782;28;19967;-15
2023/05/21 00:41:38;;;;;;;;;;;;;;;;;;5036796;28;19917;-16
2023/05/21 00:44:04;;;;;;;;;;;;;;;;;;5036681;28;19916;-15
2023/05/21 00:46:30;;;;;;;;;;;;;;;;;;5036666;28;19911;-15
2023/05/21 00:48:59;;;;;;;;;;;;;;;;;;5036608;28;19947;-15
2023/05/21 00:51:29;;;;;;;;;;;;;;;;;;5037107;28;19909;-14
2023/05/21 00:53:54;;;;;;;;;;;;;;;;;;5036493;28;19909;-14
2023/05/21 00:56:21;;;;;;;;;;;;;;;;;;5037015;28;20197;-14
2023/05/21 00:58:47;;;;;;;;;;;;;;;;;;5036411;28;20217;-15
2023/05/21 01:01:13;;;;;;;;;;;;;;;;;;5036403;28;19909;-13
2023/05/21 01:03:39;;;;;;;;;;;;;;;;;;5036193;28;19983;-14
2023/05/21 01:06:05;;;;;;;;;;;;;;;;;;5036621;28;19932;-15
2023/05/21 01:08:33;;;;;;;;;;;;;;;;;;5036496;28;20343;-14
2023/05/21 01:10:59;;;;;;;;;;;;;;;;;;5036469;28;19909;-13
2023/05/21 01:13:25;;;;;;;;;;;;;;;;;;5035093;28;19978;-15
2023/05/21 01:15:53;;;;;;;;;;;;;;;;;;5035316;28;21316;-14
2023/05/21 01:18:19;;;;;;;;;;;;;;;;;;5035911;28;19913;-16
2023/05/21 01:20:47;;;;;;;;;;;;;;;;;;5036556;28;19910;-15
2023/05/21 01:23:12;;;;;;;;;;;;;;;;;;5035892;28;20233;-16
2023/05/21 01:25:41;;;;;;;;;;;;;;;;;;5036379;28;19915;-16
2023/05/21 01:28:07;;;;;;;;;;;;;;;;;;5035910;28;19913;-15
2023/05/21 01:30:32;;;;;;;;;;;;;;;;;;5035825;28;19909;-16
2023/05/21 01:32:58;;;;;;;;;;;;;;;;;;5035572;28;19909;-14
2023/05/21 01:35:25;;;;;;;;;;;;;;;;;;5035720;28;19920;-17
2023/05/21 01:37:51;;;;;;;;;;;;;;;;;;5035878;28;20004;-15
2023/05/21 01:40:16;;;;;;;;;;;;;;;;;;5035930;28;19968;-15
2023/05/21 01:42:43;;;;;;;;;;;;;;;;;;5035688;28;19909;-17
2023/05/21 01:45:09;;;;;;;;;;;;;;;;;;5035516;28;19991;-16
2023/05/21 01:47:35;;;;;;;;;;;;;;;;;;5035529;28;19924;-14
2023/05/21 01:50:01;;;;;;;;;;;;;;;;;;5035463;28;19909;-14
2023/05/21 01:52:27;;;;;;;;;;;;;;;;;;5035369;28;19913;-15
2023/05/21 01:54:53;;;;;;;;;;;;;;;;;;5035306;28;19936;-14
2023/05/21 01:57:19;;;;;;;;;;;;;;;;;;5035220;28;19967;-14
2023/05/21 01:59:46;;;;;;;;;;;;;;;;;;5035771;28;19909;-15
2023/05/21 02:02:12;;;;;;;;;;;;;;;;;;5035448;28;20077;-14
2023/05/21 02:04:42;;;;;;;;;;;;;;;;;;5035094;28;19964;-13
2023/05/21 02:07:09;;;;;;;;;;;;;;;;;;5035655;28;19995;-14
2023/05/21 02:09:35;;;;;;;;;;;;;;;;;;5035129;28;19967;-13
2023/05/21 02:12:01;;;;;;;;;;;;;;;;;;5034980;28;19917;-14
2023/05/21 02:14:28;;;;;;;;;;;;;;;;;;5035080;28;19960;-14
2023/05/21 02:16:55;;;;;;;;;;;;;;;;;;5034995;28;20039;-14
2023/05/21 02:19:21;;;;;;;;;;;;;;;;;;5034006;28;20395;-13
2023/05/21 02:21:47;;;;;;;;;;;;;;;;;;5035092;28;20015;-14
2023/05/21 02:24:13;;;;;;;;;;;;;;;;;;5034907;28;19956;-16
2023/05/21 02:26:39;;;;;;;;;;;;;;;;;;5034852;28;19909;-14
2023/05/21 02:29:05;;;;;;;;;;;;;;;;;;5035128;28;19917;-14
2023/05/21 02:31:31;;;;;;;;;;;;;;;;;;5034997;28;20374;-14
2023/05/21 02:33:57;;;;;;;;;;;;;;;;;;5034716;28;20255;-14
2023/05/21 02:36:24;;;;;;;;;;;;;;;;;;5035337;28;20303;-15
2023/05/21 02:38:50;;;;;;;;;;;;;;;;;;5034706;28;19913;-14
2023/05/21 02:41:16;;;;;;;;;;;;;;;;;;5035284;28;20396;-14
2023/05/21 02:43:41;;;;;;;;;;;;;;;;;;5036024;28;20297;-14
2023/05/21 02:46:07;;;;;;;;;;;;;;;;;;5041228;28;20001;-14
2023/05/21 02:48:33;;;;;;;;;;;;;;;;;;5041524;28;19917;-14
2023/05/21 02:50:59;;;;;;;;;;;;;;;;;;5041542;28;19909;-14
2023/05/21 02:53:25;;;;;;;;;;;;;;;;;;5041220;28;19916;-13
2023/05/21 02:55:51;;;;;;;;;;;;;;;;;;5041260;28;19914;-14
2023/05/21 02:58:17;;;;;;;;;;;;;;;;;;5041111;28;19912;-14
2023/05/21 03:00:43;;;;;;;;;;;;;;;;;;5041208;28;19917;-14
2023/05/21 03:03:10;;;;;;;;;;;;;;;;;;5040907;28;19928;-14
2023/05/21 03:05:36;;;;;;;;;;;;;;;;;;5041131;28;20276;-14
2023/05/21 03:08:02;;;;;;;;;;;;;;;;;;5040069;28;19909;-14
2023/05/21 03:10:28;;;;;;;;;;;;;;;;;;5040015;28;20386;-14
2023/05/21 03:12:55;;;;;;;;;;;;;;;;;;5040979;28;19909;-12
2023/05/21 03:15:22;;;;;;;;;;;;;;;;;;5041024;28;19909;-13
2023/05/21 03:17:48;;;;;;;;;;;;;;;;;;5040939;28;19920;-14
2023/05/21 03:20:17;;;;;;;;;;;;;;;;;;5041254;28;19909;-13
2023/05/21 03:22:43;;;;;;;;;;;;;;;;;;5040950;28;19928;-14
2023/05/21 03:25:09;;;;;;;;;;;;;;;;;;5041489;28;19917;-12
2023/05/21 03:27:35;;;;;;;;;;;;;;;;;;5041194;28;19909;-15
2023/05/21 03:30:01;;;;;;;;;;;;;;;;;;5041488;28;20008;-13
2023/05/21 03:32:27;;;;;;;;;;;;;;;;;;5041058;28;19991;-15
2023/05/21 03:34:53;;;;;;;;;;;;;;;;;;5041079;28;19909;-14
2023/05/21 03:37:19;;;;;;;;;;;;;;;;;;5040722;28;19914;-14
2023/05/21 03:39:45;;;;;;;;;;;;;;;;;;5041039;28;19975;-13
2023/05/21 03:42:12;;;;;;;;;;;;;;;;;;5040761;28;19924;-13
2023/05/21 03:44:38;;;;;;;;;;;;;;;;;;5039815;28;19992;-15
2023/05/21 03:47:04;;;;;;;;;;;;;;;;;;5040735;28;19951;-13
2023/05/21 03:49:30;;;;;;;;;;;;;;;;;;5040984;28;19919;-14
2023/05/21 03:51:56;;;;;;;;;;;;;;;;;;5040881;28;20334;-14
2023/05/21 03:54:22;;;;;;;;;;;;;;;;;;5040666;28;20016;-14
2023/05/21 03:56:48;;;;;;;;;;;;;;;;;;5036593;28;20293;-16
2023/05/21 03:59:14;;;;;;;;;;;;;;;;;;5037452;28;19948;-15
2023/05/21 04:01:41;;;;;;;;;;;;;;;;;;5037708;28;19910;-14
2023/05/21 04:04:07;;;;;;;;;;;;;;;;;;5037140;28;20279;-14
2023/05/21 04:06:33;;;;;;;;;;;;;;;;;;5037375;28;19909;-13
2023/05/21 04:08:59;;;;;;;;;;;;;;;;;;5037622;28;19909;-13
2023/05/21 04:11:25;;;;;;;;;;;;;;;;;;5037354;28;20355;-14
2023/05/21 04:13:51;;;;;;;;;;;;;;;;;;5037493;28;19927;-14
2023/05/21 04:16:17;;;;;;;;;;;;;;;;;;5037239;28;19917;-14
2023/05/21 04:18:43;;;;;;;;;;;;;;;;;;5037126;28;19920;-14
2023/05/21 04:21:09;;;;;;;;;;;;;;;;;;5037617;28;20332;-14
2023/05/21 04:23:36;;;;;;;;;;;;;;;;;;5037526;28;19909;-12
2023/05/21 04:26:03;;;;;;;;;;;;;;;;;;5037085;28;19909;-14
2023/05/21 04:28:29;;;;;;;;;;;;;;;;;;5037217;28;20182;-14
2023/05/21 04:30:55;;;;;;;;;;;;;;;;;;5037284;28;19909;-14
2023/05/21 04:33:21;;;;;;;;;;;;;;;;;;5036865;28;19909;-13
2023/05/21 04:35:48;;;;;;;;;;;;;;;;;;5035864;28;19913;-14
2023/05/21 04:38:18;;;;;;;;;;;;;;;;;;5036737;28;19913;-14
2023/05/21 04:40:44;;;;;;;;;;;;;;;;;;5036759;28;19932;-14
2023/05/21 04:43:10;;;;;;;;;;;;;;;;;;5036678;28;19909;-13
2023/05/21 04:45:36;;;;;;;;;;;;;;;;;;5036696;28;19920;-13
2023/05/21 04:48:02;;;;;;;;;;;;;;;;;;5036605;28;19909;-13
2023/05/21 04:50:29;;;;;;;;;;;;;;;;;;5036625;28;19909;-14
2023/05/21 04:52:55;;;;;;;;;;;;;;;;;;5036493;28;19909;-14
2023/05/21 04:55:21;;;;;;;;;;;;;;;;;;5036755;28;20008;-14
2023/05/21 04:57:47;;;;;;;;;;;;;;;;;;5036683;28;20019;-15
2023/05/21 05:00:13;;;;;;;;;;;;;;;;;;5036349;28;19955;-14
2023/05/21 05:02:39;;;;;;;;;;;;;;;;;;5036553;28;19909;-14
2023/05/21 05:05:05;;;;;;;;;;;;;;;;;;5036160;28;20374;-14
2023/05/21 05:07:31;;;;;;;;;;;;;;;;;;5035939;28;19977;-13
2023/05/21 05:09:57;;;;;;;;;;;;;;;;;;5036201;28;19913;-14
2023/05/21 05:12:23;;;;;;;;;;;;;;;;;;5036116;28;19941;-14
2023/05/21 05:14:49;;;;;;;;;;;;;;;;;;5036351;28;20011;-15
2023/05/21 05:17:15;;;;;;;;;;;;;;;;;;5036275;28;19963;-13
2023/05/21 05:19:41;;;;;;;;;;;;;;;;;;5036324;28;20348;-14
2023/05/21 05:22:07;;;;;;;;;;;;;;;;;;5035921;28;19913;-14
2023/05/21 05:24:33;;;;;;;;;;;;;;;;;;5035971;28;19936;-15
2023/05/21 05:26:58;;;;;;;;;;;;;;;;;;5035901;28;19909;-14
2023/05/21 05:29:24;;;;;;;;;;;;;;;;;;5035847;28;20358;-14
2023/05/21 05:31:50;;;;;;;;;;;;;;;;;;5034783;28;19916;-14
2023/05/21 05:34:16;;;;;;;;;;;;;;;;;;5035747;28;20272;-14
2023/05/21 05:36:42;;;;;;;;;;;;;;;;;;5035991;28;19917;-14
2023/05/21 05:39:09;;;;;;;;;;;;;;;;;;5035851;28;19913;-14
2023/05/21 05:41:35;;;;;;;;;;;;;;;;;;5035705;28;19951;-14
2023/05/21 05:44:00;;;;;;;;;;;;;;;;;;5035505;28;20256;-14
2023/05/21 05:46:26;;;;;;;;;;;;;;;;;;5035774;28;19924;-13
2023/05/21 05:48:52;;;;;;;;;;;;;;;;;;5035497;28;19959;-14
2023/05/21 05:51:18;;;;;;;;;;;;;;;;;;5035963;28;19996;-14
2023/05/21 05:53:44;;;;;;;;;;;;;;;;;;5035314;28;19909;-14
2023/05/21 05:56:10;;;;;;;;;;;;;;;;;;5035384;28;20387;-14
2023/05/21 05:58:36;;;;;;;;;;;;;;;;;;5035202;28;19914;-14
2023/05/21 06:01:02;;;;;;;;;;;;;;;;;;5035269;28;19963;-14
2023/05/21 06:03:28;;;;;;;;;;;;;;;;;;5034951;28;19921;-14
2023/05/21 06:05:54;;;;;;;;;;;;;;;;;;5035184;28;19909;-14
2023/05/21 06:08:20;;;;;;;;;;;;;;;;;;5035347;28;19919;-14
2023/05/21 06:10:46;;;;;;;;;;;;;;;;;;5035113;28;19913;-14
2023/05/21 06:13:12;;;;;;;;;;;;;;;;;;5035018;28;20260;-14
2023/05/21 06:15:41;;;;;;;;;;;;;;;;;;5035041;28;20237;-14
2023/05/21 06:18:07;;;;;;;;;;;;;;;;;;5034560;28;20020;-14
2023/05/21 06:20:33;;;;;;;;;;;;;;;;;;5034646;28;19948;-14
2023/05/21 06:22:59;;;;;;;;;;;;;;;;;;5035194;28;19967;-14
2023/05/21 06:25:25;;;;;;;;;;;;;;;;;;5034901;28;19909;-14
2023/05/21 06:27:51;;;;;;;;;;;;;;;;;;5034847;28;19909;-14
2023/05/21 06:30:17;;;;;;;;;;;;;;;;;;5034758;28;19924;-14
2023/05/21 06:32:43;;;;;;;;;;;;;;;;;;5033749;28;19909;-14
2023/05/21 06:35:09;;;;;;;;;;;;;;;;;;5033793;28;19917;-13
2023/05/21 06:37:35;;;;;;;;;;;;;;;;;;5034842;28;19983;-14
2023/05/21 06:40:01;;;;;;;;;;;;;;;;;;5034771;28;19909;-14
2023/05/21 06:42:27;;;;;;;;;;;;;;;;;;5034633;28;19921;-14
2023/05/21 06:44:53;;;;;;;;;;;;;;;;;;5034982;28;19909;-14
2023/05/21 06:47:19;;;;;;;;;;;;;;;;;;5033734;28;19963;-15
2023/05/21 06:49:45;;;;;;;;;;;;;;;;;;5034754;28;19909;-14
2023/05/21 06:52:11;;;;;;;;;;;;;;;;;;5034576;28;20020;-14
2023/05/21 06:54:37;;;;;;;;;;;;;;;;;;5034835;28;19913;-15
2023/05/21 06:57:03;;;;;;;;;;;;;;;;;;5034521;28;19964;-14
2023/05/21 06:59:29;;;;;;;;;;;;;;;;;;5034551;28;20248;-14
2023/05/21 07:01:55;;;;;;;;;;;;;;;;;;5034520;28;20414;-14
2023/05/21 07:04:21;;;;;;;;;;;;;;;;;;5034345;28;19929;-13
2023/05/21 07:06:47;;;;;;;;;;;;;;;;;;5034689;28;19913;-14
2023/05/21 07:09:13;;;;;;;;;;;;;;;;;;5034515;28;20054;-14
2023/05/21 07:11:39;;;;;;;;;;;;;;;;;;5034513;28;20355;-13
2023/05/21 07:14:05;;;;;;;;;;;;;;;;;;5034425;28;19956;-14
2023/05/21 07:16:31;;;;;;;;;;;;;;;;;;5034678;28;19960;-14
2023/05/21 07:18:57;;;;;;;;;;;;;;;;;;5034308;28;20423;-15
2023/05/21 07:21:23;;;;;;;;;;;;;;;;;;5033418;28;19919;-14
2023/05/21 07:23:49;;;;;;;;;;;;;;;;;;5034572;28;19913;-14
2023/05/21 07:26:15;;;;;;;;;;;;;;;;;;5034355;28;19909;-14
2023/05/21 07:28:41;;;;;;;;;;;;;;;;;;5034389;28;20229;-14
2023/05/21 07:31:07;;;;;;;;;;;;;;;;;;5036879;28;19940;-14
2023/05/21 07:33:33;;;;;;;;;;;;;;;;;;5038150;28;20348;-14
2023/05/21 07:35:59;;;;;;;;;;;;;;;;;;5038246;28;19963;-15
2023/05/21 07:38:25;;;;;;;;;;;;;;;;;;5036931;28;19913;-14
2023/05/21 07:40:51;;;;;;;;;;;;;;;;;;5038421;28;20008;-14
2023/05/21 07:43:17;;;;;;;;;;;;;;;;;;5037747;28;20364;-14
2023/05/21 07:45:43;;;;;;;;;;;;;;;;;;5037833;28;19909;-14
2023/05/21 07:48:10;;;;;;;;;;;;;;;;;;5037774;28;19910;-14
2023/05/21 07:50:36;;;;;;;;;;;;;;;;;;5037748;28;19916;-14
2023/05/21 07:53:02;;;;;;;;;;;;;;;;;;5037625;28;19909;-14
2023/05/21 07:55:28;;;;;;;;;;;;;;;;;;5037662;28;20000;-14
2023/05/21 07:57:55;;;;;;;;;;;;;;;;;;5037543;28;19979;-14
2023/05/21 08:00:21;;;;;;;;;;;;;;;;;;5037578;28;19917;-14
2023/05/21 08:02:47;;;;;;;;;;;;;;;;;;5037313;28;19912;-14
2023/05/21 08:05:15;;;;;;;;;;;;;;;;;;5037725;28;20008;-14
2023/05/21 08:07:41;;;;;;;;;;;;;;;;;;5037425;28;19960;-14
2023/05/21 08:10:07;;;;;;;;;;;;;;;;;;5037336;28;19913;-13
2023/05/21 08:12:33;;;;;;;;;;;;;;;;;;5037251;28;20005;-14
2023/05/21 08:14:59;;;;;;;;;;;;;;;;;;5037293;28;19944;-12
2023/05/21 08:17:27;;;;;;;;;;;;;;;;;;5037166;28;19920;-14
2023/05/21 08:19:53;;;;;;;;;;;;;;;;;;5037206;28;20007;-14
2023/05/21 08:22:19;;;;;;;;;;;;;;;;;;5037248;28;19944;-15
2023/05/21 08:24:45;;;;;;;;;;;;;;;;;;5037123;28;19910;-14
2023/05/21 08:27:11;;;;;;;;;;;;;;;;;;5037059;28;20359;-14
2023/05/21 08:29:37;;;;;;;;;;;;;;;;;;5036977;28;20012;-13
2023/05/21 08:32:03;;;;;;;;;;;;;;;;;;5036825;28;19913;-13
2023/05/21 08:34:29;;;;;;;;;;;;;;;;;;5036932;28;19916;-14
2023/05/21 08:36:55;;;;;;;;;;;;;;;;;;5036894;28;19916;-13
2023/05/21 08:39:20;;;;;;;;;;;;;;;;;;5036747;28;19939;-13
2023/05/21 08:41:50;;;;;;;;;;;;;;;;;;5036113;28;20074;-15
2023/05/21 08:44:16;;;;;;;;;;;;;;;;;;5037046;28;19909;-14
2023/05/21 08:46:43;;;;;;;;;;;;;;;;;;5036728;28;20391;-14
2023/05/21 08:49:09;;;;;;;;;;;;;;;;;;5035680;28;19975;-14
2023/05/21 08:51:35;;;;;;;;;;;;;;;;;;5036572;28;19917;-14
2023/05/21 08:54:01;;;;;;;;;;;;;;;;;;5036479;28;19960;-14
2023/05/21 08:56:27;;;;;;;;;;;;;;;;;;5036716;28;19913;-14
2023/05/21 08:58:53;;;;;;;;;;;;;;;;;;5035395;28;19913;-15
2023/05/21 09:01:19;;;;;;;;;;;;;;;;;;5036384;28;19936;-13
2023/05/21 09:03:45;;;;;;;;;;;;;;;;;;5036141;28;19921;-13
2023/05/21 09:06:12;;;;;;;;;;;;;;;;;;5036309;28;20284;-13
2023/05/21 09:08:38;;;;;;;;;;;;;;;;;;5036849;28;19910;-14
2023/05/21 09:11:04;;;;;;;;;;;;;;;;;;5035224;28;19909;-15
2023/05/21 09:13:31;;;;;;;;;;;;;;;;;;5036455;28;19909;-14
2023/05/21 09:15:57;;;;;;;;;;;;;;;;;;5036423;28;19913;-14
2023/05/21 09:18:23;;;;;;;;;;;;;;;;;;5036545;28;19928;-14
2023/05/21 09:20:49;;;;;;;;;;;;;;;;;;5036275;28;19917;-14
2023/05/21 09:23:16;;;;;;;;;;;;;;;;;;5035892;28;19923;-14
2023/05/21 09:25:41;;;;;;;;;;;;;;;;;;5036236;28;19909;-15
2023/05/21 09:28:07;;;;;;;;;;;;;;;;;;5035956;28;19997;-15
2023/05/21 09:30:33;;;;;;;;;;;;;;;;;;5036100;28;19909;-14
2023/05/21 09:33:00;;;;;;;;;;;;;;;;;;5036004;28;20340;-14
2023/05/21 09:35:26;;;;;;;;;;;;;;;;;;5036024;28;19909;-15
2023/05/21 09:37:52;;;;;;;;;;;;;;;;;;5034637;28;19920;-14
2023/05/21 09:40:18;;;;;;;;;;;;;;;;;;5035941;28;19909;-14
2023/05/21 09:42:44;;;;;;;;;;;;;;;;;;5035572;28;20418;-13
2023/05/21 09:45:10;;;;;;;;;;;;;;;;;;5035797;28;19909;-14
2023/05/21 09:47:36;;;;;;;;;;;;;;;;;;5035535;28;20378;-14
2023/05/21 09:50:02;;;;;;;;;;;;;;;;;;5035464;28;19989;-15
2023/05/21 09:52:29;;;;;;;;;;;;;;;;;;5035355;28;19909;-14
2023/05/21 09:54:55;;;;;;;;;;;;;;;;;;5034513;28;20352;-14
2023/05/21 09:57:21;;;;;;;;;;;;;;;;;;5035274;28;19909;-14
2023/05/21 09:59:47;;;;;;;;;;;;;;;;;;5035285;28;19913;-14
2023/05/21 10:02:12;;;;;;;;;;;;;;;;;;5035222;28;19913;-14
2023/05/21 10:04:38;;;;;;;;;;;;;;;;;;5035076;28;19951;-14
2023/05/21 10:07:04;;;;;;;;;;;;;;;;;;5035173;28;19920;-14
2023/05/21 10:09:30;;;;;;;;;;;;;;;;;;5035072;28;19920;-13
2023/05/21 10:11:56;;;;;;;;;;;;;;;;;;5035028;28;20253;-14
2023/05/21 10:14:22;;;;;;;;;;;;;;;;;;5035112;28;20002;-15
2023/05/21 10:16:48;;;;;;;;;;;;;;;;;;5035302;28;19918;-13
2023/05/21 10:19:14;;;;;;;;;;;;;;;;;;5034939;28;19971;-13
2023/05/21 10:21:40;;;;;;;;;;;;;;;;;;5035013;28;19909;-13
2023/05/21 10:24:06;;;;;;;;;;;;;;;;;;5034919;28;19909;-14
2023/05/21 10:26:32;;;;;;;;;;;;;;;;;;5035212;28;19916;-13
2023/05/21 10:28:59;;;;;;;;;;;;;;;;;;5034933;28;19967;-15
2023/05/21 10:31:25;;;;;;;;;;;;;;;;;;5035163;28;19935;-14
2023/05/21 10:33:51;;;;;;;;;;;;;;;;;;5034817;28;19991;-14
2023/05/21 10:36:17;;;;;;;;;;;;;;;;;;5035237;28;20350;-14
2023/05/21 10:38:43;;;;;;;;;;;;;;;;;;5034804;28;20241;-15
2023/05/21 10:41:09;;;;;;;;;;;;;;;;;;5035245;28;19920;-13
2023/05/21 10:43:35;;;;;;;;;;;;;;;;;;5034640;28;19909;-13
2023/05/21 10:46:01;;;;;;;;;;;;;;;;;;5034721;28;19952;-14
2023/05/21 10:48:27;;;;;;;;;;;;;;;;;;5034707;28;19924;-14
2023/05/21 10:50:53;;;;;;;;;;;;;;;;;;5034641;28;19916;-13
2023/05/21 10:53:19;;;;;;;;;;;;;;;;;;5034603;28;19910;-14
2023/05/21 10:55:45;;;;;;;;;;;;;;;;;;5034642;28;20015;-14
2023/05/21 10:58:11;;;;;;;;;;;;;;;;;;5034496;28;19960;-14
2023/05/21 11:00:37;;;;;;;;;;;;;;;;;;5034503;28;19932;-14
2023/05/21 11:03:03;;;;;;;;;;;;;;;;;;5034306;28;19925;-14
2023/05/21 11:05:29;;;;;;;;;;;;;;;;;;5036451;28;19920;-14
2023/05/21 11:07:55;;;;;;;;;;;;;;;;;;5038527;28;19956;-15
2023/05/21 11:10:21;;;;;;;;;;;;;;;;;;5038503;28;19909;-14
2023/05/21 11:12:47;;;;;;;;;;;;;;;;;;5038481;28;19943;-14
2023/05/21 11:15:13;;;;;;;;;;;;;;;;;;5038416;28;19995;-14
2023/05/21 11:17:39;;;;;;;;;;;;;;;;;;5038276;28;19913;-13
2023/05/21 11:20:06;;;;;;;;;;;;;;;;;;5038288;28;19909;-14
2023/05/21 11:22:32;;;;;;;;;;;;;;;;;;5037585;28;20264;-14
2023/05/21 11:24:57;;;;;;;;;;;;;;;;;;5038201;28;19913;-14
2023/05/21 11:27:23;;;;;;;;;;;;;;;;;;5038425;28;19953;-14
2023/05/21 11:29:49;;;;;;;;;;;;;;;;;;5038093;28;19909;-14
2023/05/21 11:32:16;;;;;;;;;;;;;;;;;;5038258;28;20327;-12
2023/05/21 11:34:42;;;;;;;;;;;;;;;;;;5038557;28;19909;-13
2023/05/21 11:37:08;;;;;;;;;;;;;;;;;;5037945;28;19909;-14
2023/05/21 11:39:34;;;;;;;;;;;;;;;;;;5037921;28;19963;-14
2023/05/21 11:42:00;;;;;;;;;;;;;;;;;;5037851;28;19909;-14
2023/05/21 11:44:26;;;;;;;;;;;;;;;;;;5038156;28;19956;-14
2023/05/21 11:46:52;;;;;;;;;;;;;;;;;;5038092;28;20280;-14
2023/05/21 11:49:18;;;;;;;;;;;;;;;;;;5037800;28;20264;-14
2023/05/21 11:51:45;;;;;;;;;;;;;;;;;;5037710;28;19909;-13
2023/05/21 11:54:11;;;;;;;;;;;;;;;;;;5037594;28;20248;-14
2023/05/21 11:56:40;;;;;;;;;;;;;;;;;;5037845;28;19916;-14
2023/05/21 11:59:06;;;;;;;;;;;;;;;;;;5036488;28;19921;-14
2023/05/21 12:01:32;;;;;;;;;;;;;;;;;;5036595;28;20415;-13
2023/05/21 12:03:58;;;;;;;;;;;;;;;;;;5037295;28;19943;-14
2023/05/21 12:06:25;;;;;;;;;;;;;;;;;;5037687;28;19967;-13
2023/05/21 12:08:51;;;;;;;;;;;;;;;;;;5037394;28;19909;-14
2023/05/21 12:11:17;;;;;;;;;;;;;;;;;;5037299;28;19916;-14
2023/05/21 12:13:43;;;;;;;;;;;;;;;;;;5037253;28;19966;-13
2023/05/21 12:16:09;;;;;;;;;;;;;;;;;;5036898;28;19909;-14
2023/05/21 12:18:35;;;;;;;;;;;;;;;;;;5036984;28;19913;-13
2023/05/21 12:21:01;;;;;;;;;;;;;;;;;;5037438;28;19916;-12
2023/05/21 12:23:29;;;;;;;;;;;;;;;;;;5036121;28;19913;-14
2023/05/21 12:25:55;;;;;;;;;;;;;;;;;;5037700;28;19909;-14
2023/05/21 12:28:21;;;;;;;;;;;;;;;;;;5037127;28;19916;-14
2023/05/21 12:30:47;;;;;;;;;;;;;;;;;;5037540;28;20293;-13
2023/05/21 12:33:13;;;;;;;;;;;;;;;;;;5037127;28;19920;-14
2023/05/21 12:35:38;;;;;;;;;;;;;;;;;;5036919;28;19909;-14
2023/05/21 12:38:04;;;;;;;;;;;;;;;;;;5036869;28;19949;-13
2023/05/21 12:40:30;;;;;;;;;;;;;;;;;;5037078;28;19909;-14
2023/05/21 12:42:56;;;;;;;;;;;;;;;;;;5036728;28;20251;-13
2023/05/21 12:45:22;;;;;;;;;;;;;;;;;;5036706;28;20272;-13
2023/05/21 12:47:54;;;;;;;;;;;;;;;;;;5035698;28;19913;-14
2023/05/21 12:50:20;;;;;;;;;;;;;;;;;;5036969;28;19910;-14
2023/05/21 12:52:46;;;;;;;;;;;;;;;;;;5036582;28;20348;-13
2023/05/21 12:55:12;;;;;;;;;;;;;;;;;;5036506;28;19920;-13
2023/05/21 12:57:38;;;;;;;;;;;;;;;;;;5036338;28;20078;-14
2023/05/21 13:00:07;;;;;;;;;;;;;;;;;;5036475;28;19991;-13
2023/05/21 13:02:33;;;;;;;;;;;;;;;;;;5036359;28;19967;-14
2023/05/21 13:04:59;;;;;;;;;;;;;;;;;;5036204;28;19921;-14
2023/05/21 13:07:25;;;;;;;;;;;;;;;;;;5036312;28;20319;-14
2023/05/21 13:09:52;;;;;;;;;;;;;;;;;;5036551;28;19909;-14
2023/05/21 13:12:18;;;;;;;;;;;;;;;;;;5036189;28;19909;-14
2023/05/21 13:14:44;;;;;;;;;;;;;;;;;;5036238;28;19909;-12
2023/05/21 13:17:10;;;;;;;;;;;;;;;;;;5036400;28;19910;-14
2023/05/21 13:19:36;;;;;;;;;;;;;;;;;;5036034;28;19913;-14
2023/05/21 13:22:02;;;;;;;;;;;;;;;;;;5035937;28;19910;-14
2023/05/21 13:24:28;;;;;;;;;;;;;;;;;;5035963;28;19945;-13
2023/05/21 13:26:54;;;;;;;;;;;;;;;;;;5035896;28;19932;-14
2023/05/21 13:29:20;;;;;;;;;;;;;;;;;;5035562;28;19909;-13
2023/05/21 13:31:46;;;;;;;;;;;;;;;;;;5035815;28;19920;-13
2023/05/21 13:34:11;;;;;;;;;;;;;;;;;;5035695;28;19932;-13
2023/05/21 13:36:37;;;;;;;;;;;;;;;;;;5034760;28;20348;-14
2023/05/21 13:39:03;;;;;;;;;;;;;;;;;;5035909;28;19913;-13
2023/05/21 13:41:30;;;;;;;;;;;;;;;;;;5035654;28;19909;-14
2023/05/21 13:43:56;;;;;;;;;;;;;;;;;;5035578;28;19909;-14
2023/05/21 13:46:21;;;;;;;;;;;;;;;;;;5035560;28;19936;-13
2023/05/21 13:48:47;;;;;;;;;;;;;;;;;;5035529;28;20333;-14
2023/05/21 13:51:13;;;;;;;;;;;;;;;;;;5035527;28;20299;-14
2023/05/21 13:53:39;;;;;;;;;;;;;;;;;;5035378;28;19964;-15
2023/05/21 13:56:05;;;;;;;;;;;;;;;;;;5035372;28;19920;-14
2023/05/21 13:58:34;;;;;;;;;;;;;;;;;;5035523;28;19913;-14
2023/05/21 14:01:00;;;;;;;;;;;;;;;;;;5035380;28;20344;-14
2023/05/21 14:03:26;;;;;;;;;;;;;;;;;;5035007;28;19917;-14
2023/05/21 14:05:52;;;;;;;;;;;;;;;;;;5035513;28;19958;-13
2023/05/21 14:08:19;;;;;;;;;;;;;;;;;;5035187;28;19916;-14
2023/05/21 14:10:46;;;;;;;;;;;;;;;;;;5035205;28;19920;-13
2023/05/21 14:13:12;;;;;;;;;;;;;;;;;;5035079;28;19909;-13
2023/05/21 14:15:37;;;;;;;;;;;;;;;;;;5035341;28;19920;-14
2023/05/21 14:18:06;;;;;;;;;;;;;;;;;;5035259;28;19913;-13
2023/05/21 14:20:32;;;;;;;;;;;;;;;;;;5035296;28;20297;-14
2023/05/21 14:22:58;;;;;;;;;;;;;;;;;;5034868;28;19913;-13
2023/05/21 14:25:24;;;;;;;;;;;;;;;;;;5034933;28;20015;-13
2023/05/21 14:27:50;;;;;;;;;;;;;;;;;;5035204;28;19910;-12
2023/05/21 14:30:16;;;;;;;;;;;;;;;;;;5034906;28;19955;-14
2023/05/21 14:32:42;;;;;;;;;;;;;;;;;;5034811;28;19910;-14
2023/05/21 14:35:08;;;;;;;;;;;;;;;;;;5035032;28;19917;-14
2023/05/21 14:37:34;;;;;;;;;;;;;;;;;;5034728;28;19928;-13
2023/05/21 14:40:00;;;;;;;;;;;;;;;;;;5034214;28;19916;-12
2023/05/21 14:42:26;;;;;;;;;;;;;;;;;;5034672;28;19913;-14
2023/05/21 14:44:52;;;;;;;;;;;;;;;;;;5034665;28;19915;-14
2023/05/21 14:47:18;;;;;;;;;;;;;;;;;;5034679;28;19913;-14
2023/05/21 14:49:44;;;;;;;;;;;;;;;;;;5034926;28;20015;-14
2023/05/21 14:52:10;;;;;;;;;;;;;;;;;;5033617;28;19945;-13
2023/05/21 14:54:36;;;;;;;;;;;;;;;;;;5034616;28;19916;-13
2023/05/21 14:57:01;;;;;;;;;;;;;;;;;;5035172;28;20287;-14
2023/05/21 14:59:27;;;;;;;;;;;;;;;;;;5034455;28;19943;-14
2023/05/21 15:01:53;;;;;;;;;;;;;;;;;;5034754;28;19920;-14
2023/05/21 15:04:19;;;;;;;;;;;;;;;;;;5034455;28;19931;-14
2023/05/21 15:06:45;;;;;;;;;;;;;;;;;;5034506;28;20008;-15
2023/05/21 15:09:11;;;;;;;;;;;;;;;;;;5034511;28;19909;-14
2023/05/21 15:11:38;;;;;;;;;;;;;;;;;;5034999;28;19913;-13
2023/05/21 15:14:04;;;;;;;;;;;;;;;;;;5034406;28;19921;-14
2023/05/21 15:16:30;;;;;;;;;;;;;;;;;;5034428;28;20248;-14
2023/05/21 15:18:56;;;;;;;;;;;;;;;;;;5034554;28;19913;-14
2023/05/21 15:21:22;;;;;;;;;;;;;;;;;;5034408;28;20371;-15
2023/05/21 15:23:48;;;;;;;;;;;;;;;;;;5034389;28;20438;-14
2023/05/21 15:26:14;;;;;;;;;;;;;;;;;;5034367;28;19916;-13
2023/05/21 15:28:40;;;;;;;;;;;;;;;;;;5034311;28;19909;-13
2023/05/21 15:31:06;;;;;;;;;;;;;;;;;;5033269;28;20003;-13
2023/05/21 15:33:32;;;;;;;;;;;;;;;;;;5034441;28;19909;-12
2023/05/21 15:35:58;;;;;;;;;;;;;;;;;;5034267;28;20023;-14
2023/05/21 15:38:24;;;;;;;;;;;;;;;;;;5034177;28;19941;-13
2023/05/21 15:40:50;;;;;;;;;;;;;;;;;;5034298;28;19945;-13
2023/05/21 15:43:16;;;;;;;;;;;;;;;;;;5034061;28;19909;-13
2023/05/21 15:45:42;;;;;;;;;;;;;;;;;;5034194;28;19928;-13
2023/05/21 15:48:08;;;;;;;;;;;;;;;;;;5034728;28;19909;-13
2023/05/21 15:50:34;;;;;;;;;;;;;;;;;;5034568;28;19983;-13
2023/05/21 15:53:00;;;;;;;;;;;;;;;;;;5037976;28;19964;-14
2023/05/21 15:55:26;;;;;;;;;;;;;;;;;;5037660;28;19945;-14
2023/05/21 15:57:52;;;;;;;;;;;;;;;;;;5037540;28;19913;-14
2023/05/21 16:00:18;;;;;;;;;;;;;;;;;;5037581;28;19924;-14
2023/05/21 16:02:44;;;;;;;;;;;;;;;;;;5037494;28;19951;-14
2023/05/21 16:05:10;;;;;;;;;;;;;;;;;;5037832;28;19913;-15
2023/05/21 16:07:36;;;;;;;;;;;;;;;;;;5037750;28;19967;-14
2023/05/21 16:10:02;;;;;;;;;;;;;;;;;;5037390;28;19909;-13
2023/05/21 16:12:28;;;;;;;;;;;;;;;;;;5037707;28;19929;-14
2023/05/21 16:14:54;;;;;;;;;;;;;;;;;;5037408;28;19943;-14
2023/05/21 16:17:20;;;;;;;;;;;;;;;;;;5037265;28;19909;-14
2023/05/21 16:19:46;;;;;;;;;;;;;;;;;;5036244;28;19909;-14
2023/05/21 16:22:12;;;;;;;;;;;;;;;;;;5037375;28;19920;-14
2023/05/21 16:24:37;;;;;;;;;;;;;;;;;;5037671;28;20328;-14
2023/05/21 16:27:03;;;;;;;;;;;;;;;;;;5037118;28;19938;-13
2023/05/21 16:29:29;;;;;;;;;;;;;;;;;;5037583;28;19916;-13
2023/05/21 16:31:55;;;;;;;;;;;;;;;;;;5036900;28;20178;-13
2023/05/21 16:34:21;;;;;;;;;;;;;;;;;;5036953;28;19917;-13
2023/05/21 16:36:47;;;;;;;;;;;;;;;;;;5037470;28;20344;-14